Time;durP1;ratioP1;P1;durP2;ratioP2;P2;SDS_P1;SDS_P2;PMS_P1;PMS_P2;Temp;Humidity;BMP_temperature;BMP_pressure;BME280_temperature;BME280_humidity;BME280_pressure;Samples;Min_cycle;Max_cycle;Signal;HPM_P1;HPM_P2
2023/10/06 00:01:44;;;;;;;;;;;15.10;99.90;;;;;;7322524;19;9470;-68
2023/10/06 00:04:15;;;;;;;;;;;15.10;99.90;;;;;;7324394;19;9112;-68
2023/10/06 00:06:48;;;;;;;;;;;15.10;99.90;;;;;;7324057;19;9347;-68
2023/10/06 00:09:25;;;;;;;;;;;15.10;99.90;;;;;;7323560;19;9196;-68
2023/10/06 00:11:54;;;;;;;;;;;15.20;99.90;;;;;;7321418;19;9389;-69
2023/10/06 00:14:38;;;;;;;;;;;15.20;99.90;;;;;;7323681;19;9316;-69
2023/10/06 00:17:10;;;;;;;;;;;15.10;99.90;;;;;;7320645;19;9531;-69
2023/10/06 00:19:41;;;;;;;;;;;15.20;99.90;;;;;;7322891;19;10294;-69
2023/10/06 00:22:17;;;;;;;;;;;15.30;99.90;;;;;;7323128;19;9187;-69
2023/10/06 00:24:50;;;;;;;;;;;15.30;99.90;;;;;;7325221;19;9129;-68
2023/10/06 00:27:23;;;;;;;;;;;15.40;99.90;;;;;;7323296;19;9263;-69
2023/10/06 00:29:54;;;;;;;;;;;15.40;99.90;;;;;;7327719;19;9347;-69
2023/10/06 00:32:26;;;;;;;;;;;15.40;99.90;;;;;;7323403;19;9459;-69
2023/10/06 00:35:07;;;;;;;;;;;15.40;99.90;;;;;;7323826;19;9108;-69
2023/10/06 00:37:42;;;;;;;;;;;15.30;99.90;;;;;;7323538;19;9442;-69
2023/10/06 00:40:19;;;;;;;;;;;15.20;99.90;;;;;;7323196;19;9452;-69
2023/10/06 00:42:56;;;;;;;;;;;15.20;99.90;;;;;;7320471;19;9454;-69
2023/10/06 00:45:30;;;;;;;;;;;15.20;99.90;;;;;;7322185;19;9386;-69
2023/10/06 00:47:59;;;;;;;;;;;15.10;99.90;;;;;;7321299;19;9130;-69
2023/10/06 00:50:32;;;;;;;;;;;15.10;99.90;;;;;;7321191;19;9220;-69
2023/10/06 00:53:05;;;;;;;;;;;15.10;99.90;;;;;;7321267;19;9262;-69
2023/10/06 00:55:35;;;;;;;;;;;15.10;99.90;;;;;;7323172;19;9421;-70
2023/10/06 00:58:04;;;;;;;;;;;15.10;99.90;;;;;;7319095;19;9539;-69
2023/10/06 01:00:37;;;;;;;;;;;15.10;99.90;;;;;;7320796;19;9219;-69
2023/10/06 01:03:14;;;;;;;;;;;15.10;99.90;;;;;;7320100;19;9485;-69
2023/10/06 01:05:47;;;;;;;;;;;15.10;99.90;;;;;;7321575;19;9524;-69
2023/10/06 01:08:20;;;;;;;;;;;15.00;99.90;;;;;;7323027;19;9150;-69
2023/10/06 01:10:51;;;;;;;;;;;14.90;99.90;;;;;;7320562;19;9222;-69
2023/10/06 01:13:22;;;;;;;;;;;14.90;99.90;;;;;;7322137;19;9664;-69
2023/10/06 01:15:56;;;;;;;;;;;15.00;99.90;;;;;;7318408;19;9465;-69
2023/10/06 01:18:29;;;;;;;;;;;15.00;99.90;;;;;;7320043;19;9341;-69
2023/10/06 01:21:08;;;;;;;;;;;15.00;99.90;;;;;;7321435;19;9402;-69
2023/10/06 01:23:40;;;;;;;;;;;14.90;99.90;;;;;;7320030;19;9134;-69
2023/10/06 01:26:13;;;;;;;;;;;14.80;99.90;;;;;;7320498;19;9225;-69
2023/10/06 01:28:45;;;;;;;;;;;14.80;99.90;;;;;;7318845;19;9201;-69
2023/10/06 01:31:15;;;;;;;;;;;14.70;99.90;;;;;;7319887;19;9245;-69
2023/10/06 01:33:45;;;;;;;;;;;14.70;99.90;;;;;;7319642;19;9491;-69
2023/10/06 01:36:22;;;;;;;;;;;14.80;99.90;;;;;;7320079;19;9478;-69
2023/10/06 01:38:54;;;;;;;;;;;14.90;99.90;;;;;;7319995;19;9209;-69
2023/10/06 01:41:26;;;;;;;;;;;14.90;99.90;;;;;;7320406;19;10395;-69
2023/10/06 01:43:56;;;;;;;;;;;14.90;99.90;;;;;;7320197;19;9618;-69
2023/10/06 01:46:26;;;;;;;;;;;15.00;99.90;;;;;;7318670;19;9303;-69
2023/10/06 01:48:55;;;;;;;;;;;15.00;99.90;;;;;;7320834;19;9271;-69
2023/10/06 01:51:24;;;;;;;;;;;15.00;99.90;;;;;;7318634;19;9348;-69
2023/10/06 01:53:55;;;;;;;;;;;14.90;99.90;;;;;;7320996;19;9558;-69
2023/10/06 01:56:26;;;;;;;;;;;14.90;99.90;;;;;;7319920;19;9501;-69
2023/10/06 01:58:55;;;;;;;;;;;15.00;99.90;;;;;;7317943;19;11358;-69
2023/10/06 02:01:24;;;;;;;;;;;14.90;99.90;;;;;;7319080;19;9272;-69
2023/10/06 02:03:53;;;;;;;;;;;15.00;99.90;;;;;;7321371;19;9184;-69
2023/10/06 02:06:23;;;;;;;;;;;15.00;99.90;;;;;;7318304;19;9436;-69
2023/10/06 02:08:55;;;;;;;;;;;14.90;99.90;;;;;;7320620;19;9269;-69
2023/10/06 02:11:30;;;;;;;;;;;14.90;99.90;;;;;;7324382;19;9478;-69
2023/10/06 02:13:59;;;;;;;;;;;14.90;99.90;;;;;;7326131;19;9273;-68
2023/10/06 02:16:29;;;;;;;;;;;14.90;99.90;;;;;;7324929;19;9196;-68
2023/10/06 02:18:58;;;;;;;;;;;15.00;99.90;;;;;;7326297;19;9119;-69
2023/10/06 02:21:29;;;;;;;;;;;15.00;99.90;;;;;;7326222;19;9132;-69
2023/10/06 02:24:03;;;;;;;;;;;15.10;99.90;;;;;;7322295;19;9445;-69
2023/10/06 02:26:35;;;;;;;;;;;15.10;99.90;;;;;;7323224;19;9190;-69
2023/10/06 02:29:07;;;;;;;;;;;15.10;99.90;;;;;;7325792;19;10154;-69
2023/10/06 02:31:36;;;;;;;;;;;15.10;99.90;;;;;;7326421;19;10682;-69
2023/10/06 02:34:12;;;;;;;;;;;15.20;99.90;;;;;;7321702;19;11305;-69
2023/10/06 02:36:41;;;;;;;;;;;15.20;99.90;;;;;;7325361;19;9182;-69
2023/10/06 02:39:15;;;;;;;;;;;15.20;99.90;;;;;;7327071;19;9413;-69
2023/10/06 02:41:46;;;;;;;;;;;15.30;99.90;;;;;;7321015;19;9218;-69
2023/10/06 02:44:22;;;;;;;;;;;15.30;99.90;;;;;;7324799;19;9299;-69
2023/10/06 02:46:52;;;;;;;;;;;15.20;99.90;;;;;;7324589;19;10415;-69
2023/10/06 02:49:31;;;;;;;;;;;15.20;99.90;;;;;;7325558;19;9636;-68
2023/10/06 02:52:06;;;;;;;;;;;15.20;99.90;;;;;;7320150;19;9275;-68
2023/10/06 02:54:44;;;;;;;;;;;15.20;99.90;;;;;;7325484;19;9327;-69
2023/10/06 02:57:14;;;;;;;;;;;15.30;99.90;;;;;;7325235;19;10328;-69
2023/10/06 02:59:43;;;;;;;;;;;15.20;99.90;;;;;;7325653;19;9272;-69
2023/10/06 03:02:15;;;;;;;;;;;15.30;99.90;;;;;;7323150;19;9304;-69
2023/10/06 03:04:49;;;;;;;;;;;15.30;99.90;;;;;;7324997;19;9127;-68
2023/10/06 03:07:18;;;;;;;;;;;15.30;99.90;;;;;;7323593;19;9434;-68
2023/10/06 03:09:50;;;;;;;;;;;15.40;99.90;;;;;;7323036;19;10853;-68
2023/10/06 03:12:26;;;;;;;;;;;15.30;99.90;;;;;;7324503;19;9481;-69
2023/10/06 03:14:56;;;;;;;;;;;15.30;99.90;;;;;;7320382;19;9252;-69
2023/10/06 03:17:26;;;;;;;;;;;15.30;99.90;;;;;;7320862;19;9178;-69
2023/10/06 03:20:09;;;;;;;;;;;15.30;99.90;;;;;;7324348;19;9240;-69
2023/10/06 03:22:40;;;;;;;;;;;15.30;99.90;;;;;;7321213;19;9528;-69
2023/10/06 03:25:17;;;;;;;;;;;15.30;99.90;;;;;;7324220;19;9173;-69
2023/10/06 03:27:49;;;;;;;;;;;15.30;99.90;;;;;;7324517;19;9458;-69
2023/10/06 03:30:26;;;;;;;;;;;15.30;99.90;;;;;;7324809;19;9111;-69
2023/10/06 03:32:57;;;;;;;;;;;15.20;99.90;;;;;;7324269;19;9261;-69
2023/10/06 03:35:36;;;;;;;;;;;15.20;99.90;;;;;;7321986;19;9312;-69
2023/10/06 03:38:27;;;;;;;;;;;15.20;99.90;;;;;;7321728;19;9393;-69
2023/10/06 03:41:18;;;;;;;;;;;15.30;99.90;;;;;;7322939;19;9766;-68
2023/10/06 03:43:51;;;;;;;;;;;15.30;99.90;;;;;;7323878;19;10700;-69
2023/10/06 03:46:23;;;;;;;;;;;15.40;99.90;;;;;;7322303;19;9195;-68
2023/10/06 03:48:53;;;;;;;;;;;15.50;99.90;;;;;;7324130;19;9354;-69
2023/10/06 03:51:25;;;;;;;;;;;15.50;99.90;;;;;;7321403;19;9668;-69
2023/10/06 03:53:56;;;;;;;;;;;15.40;99.90;;;;;;7324615;19;10683;-69
2023/10/06 03:56:27;;;;;;;;;;;15.40;99.90;;;;;;7322836;19;9443;-69
2023/10/06 03:58:56;;;;;;;;;;;15.50;99.90;;;;;;7324673;19;10355;-68
2023/10/06 04:01:31;;;;;;;;;;;15.50;99.90;;;;;;7320118;19;9244;-69
2023/10/06 04:04:01;;;;;;;;;;;15.50;99.90;;;;;;7323515;19;9449;-69
2023/10/06 04:06:35;;;;;;;;;;;15.50;99.90;;;;;;7322846;19;10375;-68
2023/10/06 04:09:04;;;;;;;;;;;15.50;99.90;;;;;;7323204;19;9439;-68
2023/10/06 04:11:36;;;;;;;;;;;15.60;99.90;;;;;;7321090;19;9306;-69
2023/10/06 04:14:05;;;;;;;;;;;15.60;99.90;;;;;;7323227;19;9471;-68
2023/10/06 04:16:45;;;;;;;;;;;15.50;99.90;;;;;;7320635;19;9173;-69
2023/10/06 04:19:16;;;;;;;;;;;15.50;99.90;;;;;;7323607;19;9522;-69
2023/10/06 04:21:47;;;;;;;;;;;15.50;99.90;;;;;;7317763;19;10760;-69
2023/10/06 04:24:16;;;;;;;;;;;15.50;99.90;;;;;;7323670;19;11221;-68
2023/10/06 04:26:48;;;;;;;;;;;15.50;99.90;;;;;;7324346;19;9244;-69
2023/10/06 04:29:18;;;;;;;;;;;15.50;99.90;;;;;;7322455;19;11295;-69
2023/10/06 04:31:49;;;;;;;;;;;15.40;99.90;;;;;;7323895;19;9319;-68
2023/10/06 04:34:21;;;;;;;;;;;15.50;99.90;;;;;;7322935;19;9280;-68
2023/10/06 04:36:51;;;;;;;;;;;15.40;99.90;;;;;;7321727;19;10467;-68
2023/10/06 04:39:20;;;;;;;;;;;15.40;99.90;;;;;;7323206;19;9310;-69
2023/10/06 04:41:51;;;;;;;;;;;15.40;99.90;;;;;;7323627;19;9211;-69
2023/10/06 04:44:20;;;;;;;;;;;15.40;99.90;;;;;;7323090;19;10308;-69
2023/10/06 04:46:50;;;;;;;;;;;15.30;99.90;;;;;;7321266;19;9423;-68
2023/10/06 04:49:19;;;;;;;;;;;15.30;99.90;;;;;;7323352;19;9123;-69
2023/10/06 04:51:48;;;;;;;;;;;15.20;99.90;;;;;;7320778;19;9267;-68
2023/10/06 04:54:17;;;;;;;;;;;15.20;99.90;;;;;;7323656;19;10079;-68
2023/10/06 04:56:48;;;;;;;;;;;15.30;99.90;;;;;;7321651;19;9589;-68
2023/10/06 04:59:19;;;;;;;;;;;15.30;99.90;;;;;;7322202;19;8945;-69
2023/10/06 05:01:49;;;;;;;;;;;15.30;99.90;;;;;;7319474;19;10541;-69
2023/10/06 05:04:18;;;;;;;;;;;15.20;99.90;;;;;;7323048;19;9466;-68
2023/10/06 05:06:47;;;;;;;;;;;15.40;99.90;;;;;;7320284;19;10276;-68
2023/10/06 05:09:18;;;;;;;;;;;15.30;99.90;;;;;;7322184;19;10331;-68
2023/10/06 05:11:47;;;;;;;;;;;15.30;99.90;;;;;;7322282;19;9479;-68
2023/10/06 05:14:18;;;;;;;;;;;15.40;99.90;;;;;;7320007;19;9218;-68
2023/10/06 05:16:51;;;;;;;;;;;15.40;99.90;;;;;;7320251;19;9157;-69
2023/10/06 05:19:20;;;;;;;;;;;15.40;99.90;;;;;;7321558;19;9931;-69
2023/10/06 05:21:52;;;;;;;;;;;15.40;99.90;;;;;;7322989;19;9650;-68
2023/10/06 05:24:21;;;;;;;;;;;15.40;99.90;;;;;;7320823;19;9437;-68
2023/10/06 05:26:50;;;;;;;;;;;15.60;99.90;;;;;;7322635;19;9439;-69
2023/10/06 05:29:24;;;;;;;;;;;15.60;99.90;;;;;;7322297;19;10158;-68
2023/10/06 05:31:53;;;;;;;;;;;15.60;99.90;;;;;;7319977;19;9308;-68
2023/10/06 05:34:23;;;;;;;;;;;15.50;99.90;;;;;;7318972;19;9470;-68
2023/10/06 05:36:52;;;;;;;;;;;15.50;99.90;;;;;;7319876;19;9161;-68
2023/10/06 05:39:21;;;;;;;;;;;15.50;99.90;;;;;;7321133;19;9411;-68
2023/10/06 05:41:51;;;;;;;;;;;15.50;99.90;;;;;;7316799;19;9216;-69
2023/10/06 05:44:24;;;;;;;;;;;15.60;99.90;;;;;;7322614;19;9269;-81
2023/10/06 05:46:54;;;;;;;;;;;15.60;99.90;;;;;;7325118;19;9365;-68
2023/10/06 05:49:23;;;;;;;;;;;15.60;99.90;;;;;;7325318;19;9552;-67
2023/10/06 05:51:54;;;;;;;;;;;15.70;99.90;;;;;;7328126;19;9371;-68
2023/10/06 05:54:26;;;;;;;;;;;15.70;99.90;;;;;;7328152;19;9268;-75
2023/10/06 05:56:56;;;;;;;;;;;15.80;99.90;;;;;;7326342;19;9221;-69
2023/10/06 05:59:28;;;;;;;;;;;15.90;99.90;;;;;;7324663;19;9548;-69
2023/10/06 06:02:00;;;;;;;;;;;15.80;99.90;;;;;;7320176;19;9367;-69
2023/10/06 06:04:30;;;;;;;;;;;15.80;99.90;;;;;;7319457;19;9454;-68
2023/10/06 06:07:08;;;;;;;;;;;15.80;99.90;;;;;;7326763;19;9344;-70
2023/10/06 06:09:37;;;;;;;;;;;15.90;99.90;;;;;;7323889;19;10310;-71
2023/10/06 06:12:06;;;;;;;;;;;16.10;99.90;;;;;;7327066;19;9245;-70
2023/10/06 06:14:39;;;;;;;;;;;16.00;99.90;;;;;;7328611;19;9142;-70
2023/10/06 06:17:08;;;;;;;;;;;16.10;99.90;;;;;;7325411;19;10604;-70
2023/10/06 06:19:39;;;;;;;;;;;16.00;99.90;;;;;;7324531;19;9427;-71
2023/10/06 06:22:10;;;;;;;;;;;16.00;99.90;;;;;;7320361;19;9384;-71
2023/10/06 06:24:40;;;;;;;;;;;16.00;99.90;;;;;;7311889;19;9232;-71
2023/10/06 06:27:09;;;;;;;;;;;16.10;99.90;;;;;;7319979;19;9698;-71
2023/10/06 06:29:43;;;;;;;;;;;16.10;99.90;;;;;;7325390;19;9162;-71
2023/10/06 06:32:14;;;;;;;;;;;16.00;99.90;;;;;;7307134;19;9249;-71
2023/10/06 06:34:44;;;;;;;;;;;16.10;99.90;;;;;;7327578;19;9476;-72
2023/10/06 06:37:13;;;;;;;;;;;16.00;99.90;;;;;;7326117;19;9154;-71
2023/10/06 06:39:44;;;;;;;;;;;15.90;99.90;;;;;;7328017;19;9297;-71
2023/10/06 06:42:13;;;;;;;;;;;16.00;99.90;;;;;;7327512;19;9146;-71
2023/10/06 06:44:47;;;;;;;;;;;16.10;99.90;;;;;;7327256;19;9536;-71
2023/10/06 06:47:20;;;;;;;;;;;16.10;99.90;;;;;;7323750;19;9395;-71
2023/10/06 06:49:49;;;;;;;;;;;16.10;99.90;;;;;;7322638;19;9142;-71
2023/10/06 06:52:21;;;;;;;;;;;16.10;99.90;;;;;;7325928;19;9700;-71
2023/10/06 06:54:50;;;;;;;;;;;16.10;99.90;;;;;;7327198;19;9132;-71
2023/10/06 06:57:19;;;;;;;;;;;16.20;99.90;;;;;;7324753;19;9678;-70
2023/10/06 06:59:52;;;;;;;;;;;16.20;99.90;;;;;;7327388;19;9127;-70
2023/10/06 07:02:22;;;;;;;;;;;16.20;99.90;;;;;;7325309;19;9222;-70
2023/10/06 07:04:51;;;;;;;;;;;16.30;99.90;;;;;;7327162;19;9481;-70
2023/10/06 07:07:20;;;;;;;;;;;16.20;99.90;;;;;;7324522;19;9486;-70
2023/10/06 07:09:49;;;;;;;;;;;16.30;99.90;;;;;;7327276;19;9257;-70
2023/10/06 07:12:18;;;;;;;;;;;16.20;99.90;;;;;;7326145;19;9461;-70
2023/10/06 07:14:47;;;;;;;;;;;16.30;99.90;;;;;;7324244;19;9228;-70
2023/10/06 07:17:18;;;;;;;;;;;16.40;99.90;;;;;;7325366;19;9308;-70
2023/10/06 07:19:48;;;;;;;;;;;16.50;99.90;;;;;;7326621;19;9186;-70
2023/10/06 07:22:17;;;;;;;;;;;16.60;99.90;;;;;;7325623;19;9186;-70
2023/10/06 07:24:49;;;;;;;;;;;16.60;99.90;;;;;;7325678;19;9265;-70
2023/10/06 07:27:18;;;;;;;;;;;16.60;99.90;;;;;;7324415;19;9472;-70
2023/10/06 07:29:47;;;;;;;;;;;16.60;99.90;;;;;;7326035;19;9205;-70
2023/10/06 07:32:19;;;;;;;;;;;16.60;99.90;;;;;;7324924;19;10422;-70
2023/10/06 07:34:48;;;;;;;;;;;16.60;99.90;;;;;;7326332;19;9274;-70
2023/10/06 07:37:17;;;;;;;;;;;16.60;99.90;;;;;;7325460;19;11329;-70
2023/10/06 07:39:46;;;;;;;;;;;16.60;99.90;;;;;;7323551;19;9322;-70
2023/10/06 07:42:16;;;;;;;;;;;16.80;99.90;;;;;;7323267;19;9628;-70
2023/10/06 07:44:47;;;;;;;;;;;16.80;99.90;;;;;;7324934;19;9399;-70
2023/10/06 07:47:24;;;;;;;;;;;16.70;99.90;;;;;;7325260;19;9243;-70
2023/10/06 07:49:54;;;;;;;;;;;17.00;99.90;;;;;;7324587;19;10693;-70
2023/10/06 07:52:22;;;;;;;;;;;17.10;99.90;;;;;;7325773;19;9221;-70
2023/10/06 07:54:51;;;;;;;;;;;17.30;99.90;;;;;;7322498;19;10565;-70
2023/10/06 07:57:21;;;;;;;;;;;17.40;99.90;;;;;;7321597;19;9248;-70
2023/10/06 07:59:50;;;;;;;;;;;17.40;99.90;;;;;;7325688;19;9309;-70
2023/10/06 08:02:22;;;;;;;;;;;17.30;99.90;;;;;;7324983;19;9656;-70
2023/10/06 08:04:51;;;;;;;;;;;17.30;99.90;;;;;;7325503;19;9296;-70
2023/10/06 08:07:26;;;;;;;;;;;17.50;99.90;;;;;;7321244;19;10524;-70
2023/10/06 08:09:56;;;;;;;;;;;17.40;99.90;;;;;;7325607;19;9121;-70
2023/10/06 08:12:27;;;;;;;;;;;17.60;99.90;;;;;;7323975;19;9272;-70
2023/10/06 08:14:56;;;;;;;;;;;17.50;99.90;;;;;;7324851;19;9308;-70
2023/10/06 08:17:29;;;;;;;;;;;17.50;99.90;;;;;;7317797;19;9225;-70
2023/10/06 08:19:58;;;;;;;;;;;17.30;99.90;;;;;;7321406;19;9337;-70
2023/10/06 08:22:29;;;;;;;;;;;17.30;99.90;;;;;;7324431;19;9230;-70
2023/10/06 08:24:58;;;;;;;;;;;17.30;99.90;;;;;;7324481;19;9399;-70
2023/10/06 08:27:27;;;;;;;;;;;17.40;99.90;;;;;;7319588;19;9236;-70
2023/10/06 08:29:56;;;;;;;;;;;17.30;99.90;;;;;;7321674;19;9226;-70
2023/10/06 08:32:27;;;;;;;;;;;17.30;99.90;;;;;;7321415;19;9426;-70
2023/10/06 08:34:57;;;;;;;;;;;17.20;99.90;;;;;;7322950;19;9380;-70
2023/10/06 08:37:26;;;;;;;;;;;17.30;99.90;;;;;;7324327;19;9496;-70
2023/10/06 08:39:55;;;;;;;;;;;17.50;99.90;;;;;;7325119;19;9358;-70
2023/10/06 08:42:25;;;;;;;;;;;17.60;99.90;;;;;;7324563;19;9406;-70
2023/10/06 08:44:54;;;;;;;;;;;17.80;99.90;;;;;;7323845;19;9317;-70
2023/10/06 08:47:24;;;;;;;;;;;17.80;99.90;;;;;;7320671;19;9188;-70
2023/10/06 08:49:59;;;;;;;;;;;17.80;99.90;;;;;;7322978;19;9187;-70
2023/10/06 08:52:32;;;;;;;;;;;17.90;99.90;;;;;;7323835;19;9128;-70
2023/10/06 08:55:02;;;;;;;;;;;18.00;99.90;;;;;;7323552;19;9679;-70
2023/10/06 08:57:31;;;;;;;;;;;18.00;99.90;;;;;;7322135;19;9512;-70
2023/10/06 09:00:00;;;;;;;;;;;17.90;99.90;;;;;;7320336;19;9190;-70
2023/10/06 09:02:29;;;;;;;;;;;18.00;99.90;;;;;;7322947;19;9507;-70
2023/10/06 09:05:02;;;;;;;;;;;18.10;99.90;;;;;;7321635;19;9207;-70
2023/10/06 09:07:31;;;;;;;;;;;18.20;99.90;;;;;;7323670;19;9454;-70
2023/10/06 09:10:02;;;;;;;;;;;18.20;99.90;;;;;;7323721;19;9508;-70
2023/10/06 09:12:34;;;;;;;;;;;18.20;99.90;;;;;;7322972;19;9265;-70
2023/10/06 09:15:04;;;;;;;;;;;18.40;99.90;;;;;;7321848;19;10336;-70
2023/10/06 09:17:36;;;;;;;;;;;18.30;99.90;;;;;;7321530;19;9363;-70
2023/10/06 09:20:09;;;;;;;;;;;18.20;99.90;;;;;;7320507;19;9268;-70
2023/10/06 09:22:49;;;;;;;;;;;18.20;99.90;;;;;;7320810;19;9502;-69
2023/10/06 09:25:19;;;;;;;;;;;18.20;99.90;;;;;;7322237;19;9252;-70
2023/10/06 09:27:48;;;;;;;;;;;18.30;99.90;;;;;;7319862;19;9316;-70
2023/10/06 09:30:20;;;;;;;;;;;18.30;99.90;;;;;;7321032;19;10209;-70
2023/10/06 09:33:04;;;;;;;;;;;18.50;99.90;;;;;;7320169;19;9123;-70
2023/10/06 09:35:36;;;;;;;;;;;18.50;99.90;;;;;;7311153;19;9374;-70
2023/10/06 09:38:13;;;;;;;;;;;18.50;99.90;;;;;;7320440;19;8966;-70
2023/10/06 09:40:47;;;;;;;;;;;18.40;99.90;;;;;;7321474;19;9145;-70
2023/10/06 09:43:19;;;;;;;;;;;18.50;99.90;;;;;;7321073;19;9474;-70
2023/10/06 09:45:53;;;;;;;;;;;18.40;99.90;;;;;;7321182;19;9414;-70
2023/10/06 09:48:33;;;;;;;;;;;18.60;99.90;;;;;;7318588;19;9286;-70
2023/10/06 09:51:12;;;;;;;;;;;18.50;99.90;;;;;;7322451;19;9242;-70
2023/10/06 09:53:43;;;;;;;;;;;18.50;99.90;;;;;;7323005;19;9483;-70
2023/10/06 09:56:17;;;;;;;;;;;18.60;99.90;;;;;;7317752;19;9245;-70
2023/10/06 09:58:51;;;;;;;;;;;18.70;99.90;;;;;;7320845;19;9176;-70
2023/10/06 10:01:22;;;;;;;;;;;18.70;99.90;;;;;;7321888;19;9482;-70
2023/10/06 10:03:55;;;;;;;;;;;18.70;99.90;;;;;;7319385;19;9334;-70
2023/10/06 10:06:28;;;;;;;;;;;18.80;99.90;;;;;;7319972;19;9272;-70
2023/10/06 10:08:57;;;;;;;;;;;18.80;99.90;;;;;;7321943;19;10771;-70
2023/10/06 10:11:34;;;;;;;;;;;19.00;99.90;;;;;;7321704;19;9437;-70
2023/10/06 10:14:28;;;;;;;;;;;19.20;99.90;;;;;;7316060;19;9327;-71
2023/10/06 10:17:19;;;;;;;;;;;19.40;99.90;;;;;;7311895;19;9245;-69
2023/10/06 10:19:51;;;;;;;;;;;19.40;99.90;;;;;;7290632;19;9470;-69
2023/10/06 10:22:23;;;;;;;;;;;19.50;99.90;;;;;;7319467;19;9511;-69
2023/10/06 10:24:52;;;;;;;;;;;19.60;99.90;;;;;;7314103;19;9425;-69
2023/10/06 10:27:22;;;;;;;;;;;19.60;99.90;;;;;;7314205;19;9197;-71
2023/10/06 10:29:52;;;;;;;;;;;19.50;99.90;;;;;;7314913;19;9537;-70
2023/10/06 10:32:23;;;;;;;;;;;19.50;99.90;;;;;;7322565;19;9241;-69
2023/10/06 10:35:08;;;;;;;;;;;19.50;99.90;;;;;;7316113;19;9275;-70
2023/10/06 10:37:59;;;;;;;;;;;19.40;99.90;;;;;;7298330;19;9181;-70
2023/10/06 10:40:31;;;;;;;;;;;19.30;99.90;;;;;;7326484;19;9243;-77
2023/10/06 10:43:09;;;;;;;;;;;19.40;99.90;;;;;;7318678;19;9224;-67
2023/10/06 10:45:44;;;;;;;;;;;19.60;99.90;;;;;;7326853;19;9253;-70
2023/10/06 10:48:17;;;;;;;;;;;19.70;99.90;;;;;;7320976;19;9237;-68
2023/10/06 10:51:05;;;;;;;;;;;19.70;99.90;;;;;;7326222;19;10646;-67
2023/10/06 10:53:37;;;;;;;;;;;19.70;99.90;;;;;;7323228;19;9480;-67
2023/10/06 10:56:13;;;;;;;;;;;19.80;99.90;;;;;;7318667;19;10402;-67
2023/10/06 10:58:58;;;;;;;;;;;19.90;99.90;;;;;;7327344;19;11430;-67
2023/10/06 11:01:31;;;;;;;;;;;19.80;99.90;;;;;;7326774;19;9407;-67
2023/10/06 11:04:21;;;;;;;;;;;19.80;99.90;;;;;;7322926;19;9280;-67
2023/10/06 11:06:52;;;;;;;;;;;19.70;99.90;;;;;;7325968;19;9253;-67
2023/10/06 11:09:29;;;;;;;;;;;19.70;99.90;;;;;;7324726;19;9234;-67
2023/10/06 11:11:59;;;;;;;;;;;19.60;99.90;;;;;;7322155;19;9532;-68
2023/10/06 11:14:30;;;;;;;;;;;19.60;99.90;;;;;;7319744;19;9233;-69
2023/10/06 11:17:02;;;;;;;;;;;19.50;99.90;;;;;;7322890;19;9173;-67
2023/10/06 11:19:32;;;;;;;;;;;19.50;99.90;;;;;;7326024;19;9201;-68
2023/10/06 11:22:11;;;;;;;;;;;19.50;99.90;;;;;;7318961;19;10842;-68
2023/10/06 11:24:44;;;;;;;;;;;19.50;99.90;;;;;;7314536;19;9303;-68
2023/10/06 11:27:16;;;;;;;;;;;19.50;99.90;;;;;;7319999;19;9303;-68
2023/10/06 11:29:47;;;;;;;;;;;19.60;99.90;;;;;;7316051;19;9207;-68
2023/10/06 11:32:17;;;;;;;;;;;19.60;99.90;;;;;;7323494;19;9201;-68
2023/10/06 11:34:48;;;;;;;;;;;19.80;99.90;;;;;;7324900;19;9249;-68
2023/10/06 11:37:22;;;;;;;;;;;19.90;99.90;;;;;;7321483;19;9471;-69
2023/10/06 11:39:57;;;;;;;;;;;20.00;99.90;;;;;;7320691;19;9376;-68
2023/10/06 11:42:36;;;;;;;;;;;20.00;99.90;;;;;;7321600;19;9172;-68
2023/10/06 11:45:11;;;;;;;;;;;20.10;99.90;;;;;;7326008;19;9210;-68
2023/10/06 11:47:39;;;;;;;;;;;20.10;99.90;;;;;;7325808;19;9217;-68
2023/10/06 11:50:13;;;;;;;;;;;20.20;99.90;;;;;;7325877;19;9189;-69
2023/10/06 11:52:46;;;;;;;;;;;20.20;99.90;;;;;;7325342;19;9217;-69
2023/10/06 11:55:29;;;;;;;;;;;20.30;99.90;;;;;;7327543;19;9473;-68
2023/10/06 11:58:00;;;;;;;;;;;20.40;99.90;;;;;;7326043;19;9216;-68
2023/10/06 12:00:42;;;;;;;;;;;20.40;99.90;;;;;;7325218;19;9221;-68
2023/10/06 12:03:16;;;;;;;;;;;20.30;99.90;;;;;;7321064;19;10352;-68
2023/10/06 12:05:57;;;;;;;;;;;20.40;99.90;;;;;;7320928;19;9507;-68
2023/10/06 12:08:26;;;;;;;;;;;20.40;99.90;;;;;;7323540;19;9334;-68
2023/10/06 12:11:03;;;;;;;;;;;20.40;99.90;;;;;;7324682;19;9165;-69
2023/10/06 12:13:33;;;;;;;;;;;20.40;99.90;;;;;;7319554;19;9320;-68
2023/10/06 12:16:12;;;;;;;;;;;20.40;99.90;;;;;;7320239;19;9505;-72
2023/10/06 12:18:43;;;;;;;;;;;20.50;99.90;;;;;;7322450;19;9333;-68
2023/10/06 12:21:14;;;;;;;;;;;20.40;99.90;;;;;;7320911;19;9173;-70
2023/10/06 12:23:43;;;;;;;;;;;20.40;99.90;;;;;;7323172;19;9209;-69
2023/10/06 12:26:14;;;;;;;;;;;20.50;99.90;;;;;;7324345;19;9202;-69
2023/10/06 12:28:44;;;;;;;;;;;20.50;99.90;;;;;;7319820;19;9283;-68
2023/10/06 12:31:14;;;;;;;;;;;20.50;99.90;;;;;;7320192;19;11385;-68
2023/10/06 12:33:43;;;;;;;;;;;20.50;99.90;;;;;;7316883;19;9460;-69
2023/10/06 12:36:12;;;;;;;;;;;20.50;99.90;;;;;;7316409;19;9598;-68
2023/10/06 12:38:44;;;;;;;;;;;20.60;99.90;;;;;;7312454;19;11405;-69
2023/10/06 12:41:17;;;;;;;;;;;20.50;99.90;;;;;;7314658;19;10353;-68
2023/10/06 12:43:47;;;;;;;;;;;20.50;99.90;;;;;;7321306;19;9186;-69
2023/10/06 12:46:17;;;;;;;;;;;20.50;99.90;;;;;;7312213;19;9363;-68
2023/10/06 12:48:47;;;;;;;;;;;20.40;99.90;;;;;;7309892;19;10306;-69
2023/10/06 12:51:15;;;;;;;;;;;20.50;99.90;;;;;;7316635;19;9270;-69
2023/10/06 12:53:44;;;;;;;;;;;20.60;99.90;;;;;;7314017;19;9504;-68
2023/10/06 12:56:17;;;;;;;;;;;20.60;99.90;;;;;;7308053;19;9463;-69
2023/10/06 12:58:46;;;;;;;;;;;20.70;99.90;;;;;;7309052;19;9687;-69
2023/10/06 13:01:15;;;;;;;;;;;20.60;99.90;;;;;;7317922;19;9217;-70
2023/10/06 13:03:44;;;;;;;;;;;20.60;99.90;;;;;;7315140;19;9575;-69
2023/10/06 13:06:13;;;;;;;;;;;20.60;99.90;;;;;;7318157;19;9121;-69
2023/10/06 13:08:42;;;;;;;;;;;20.60;99.90;;;;;;7321562;19;9674;-69
2023/10/06 13:11:12;;;;;;;;;;;20.60;99.90;;;;;;7319082;19;9525;-69
2023/10/06 13:13:48;;;;;;;;;;;20.70;99.90;;;;;;7321250;19;9640;-69
2023/10/06 13:16:19;;;;;;;;;;;20.70;99.90;;;;;;7323620;19;9331;-69
2023/10/06 13:18:49;;;;;;;;;;;20.70;99.90;;;;;;7323235;19;9307;-69
2023/10/06 13:21:18;;;;;;;;;;;20.60;99.90;;;;;;7322953;19;9229;-69
2023/10/06 13:23:47;;;;;;;;;;;20.50;99.90;;;;;;7322951;19;9175;-69
2023/10/06 13:26:18;;;;;;;;;;;20.40;99.90;;;;;;7322515;19;9213;-69
2023/10/06 13:28:53;;;;;;;;;;;20.30;99.90;;;;;;7324003;19;9261;-69
2023/10/06 13:31:23;;;;;;;;;;;20.20;99.90;;;;;;7323190;19;9243;-69
2023/10/06 13:33:54;;;;;;;;;;;20.20;99.90;;;;;;7322582;19;9478;-69
2023/10/06 13:36:23;;;;;;;;;;;20.10;99.90;;;;;;7322815;19;9285;-69
2023/10/06 13:38:52;;;;;;;;;;;20.10;99.90;;;;;;7322098;19;9196;-69
2023/10/06 13:41:22;;;;;;;;;;;20.00;99.90;;;;;;7322250;19;9475;-69
2023/10/06 13:43:54;;;;;;;;;;;20.00;99.90;;;;;;7323082;19;9352;-69
2023/10/06 13:46:23;;;;;;;;;;;19.90;99.90;;;;;;7322657;19;9418;-69
2023/10/06 13:48:52;;;;;;;;;;;19.90;99.90;;;;;;7322875;19;9491;-69
2023/10/06 13:51:21;;;;;;;;;;;19.80;99.90;;;;;;7322371;19;9569;-69
2023/10/06 13:53:50;;;;;;;;;;;19.90;99.90;;;;;;7322310;19;9206;-69
2023/10/06 13:56:20;;;;;;;;;;;19.90;99.90;;;;;;7321749;19;10926;-68
2023/10/06 13:58:49;;;;;;;;;;;19.90;99.90;;;;;;7322029;19;9434;-69
2023/10/06 14:01:22;;;;;;;;;;;19.80;99.90;;;;;;7322208;19;9558;-68
2023/10/06 14:03:51;;;;;;;;;;;19.90;99.90;;;;;;7322390;19;11028;-69
2023/10/06 14:06:20;;;;;;;;;;;19.90;99.90;;;;;;7324449;19;10336;-69
2023/10/06 14:08:49;;;;;;;;;;;19.90;99.90;;;;;;7328615;19;9530;-69
2023/10/06 14:11:19;;;;;;;;;;;19.90;99.90;;;;;;7328141;19;9181;-69
2023/10/06 14:13:49;;;;;;;;;;;19.90;99.90;;;;;;7327640;19;9254;-69
2023/10/06 14:16:22;;;;;;;;;;;19.90;99.90;;;;;;7327653;19;9750;-69
2023/10/06 14:18:53;;;;;;;;;;;19.80;99.90;;;;;;7327630;19;9187;-69
2023/10/06 14:21:22;;;;;;;;;;;19.80;99.90;;;;;;7328930;19;9257;-69
2023/10/06 14:23:54;;;;;;;;;;;19.70;99.90;;;;;;7328081;19;9359;-69
2023/10/06 14:26:23;;;;;;;;;;;19.80;99.90;;;;;;7328117;19;9129;-69
2023/10/06 14:28:52;;;;;;;;;;;19.80;99.90;;;;;;7327780;19;9309;-69
2023/10/06 14:31:29;;;;;;;;;;;19.80;99.90;;;;;;7328336;19;9170;-69
2023/10/06 14:34:33;;;;;;;;;;;19.80;99.90;;;;;;7328235;19;9165;-69
2023/10/06 14:36:57;;;;;;;;;;;19.70;99.90;;;;;;7327030;19;9468;-69
2023/10/06 14:47:35;;;;;;;;;;;19.60;99.90;;;;;;7327286;19;9283;-69
2023/10/06 14:50:10;;;;;;;;;;;19.60;99.90;;;;;;7325351;19;9504;-69
2023/10/06 14:52:40;;;;;;;;;;;19.60;99.90;;;;;;7327485;19;9485;-69
2023/10/06 14:55:10;;;;;;;;;;;19.60;99.90;;;;;;7327651;19;9234;-69
2023/10/06 14:57:39;;;;;;;;;;;19.50;99.90;;;;;;7327490;19;9264;-69
2023/10/06 15:00:13;;;;;;;;;;;19.60;99.90;;;;;;7327360;19;9150;-69
2023/10/06 15:02:49;;;;;;;;;;;19.60;99.90;;;;;;7326986;19;9157;-69
2023/10/06 15:05:19;;;;;;;;;;;19.50;99.90;;;;;;7327143;19;10327;-69